createdAt,value
2019-05-19T00:00:25.676Z,10.97
2019-05-19T00:01:25.653Z,11.00
2019-05-19T00:02:25.618Z,10.97
2019-05-19T00:03:25.668Z,10.97
2019-05-19T00:04:25.559Z,11.00
2019-05-19T00:05:25.534Z,10.97
2019-05-19T00:06:25.498Z,10.92
2019-05-19T00:07:25.468Z,10.92
2019-05-19T00:08:25.473Z,10.96
2019-05-19T00:09:25.411Z,10.82
2019-05-19T00:10:25.384Z,10.84
2019-05-19T00:11:25.355Z,10.87
2019-05-19T00:12:25.329Z,10.82
2019-05-19T00:13:25.315Z,10.86
2019-05-19T00:14:25.268Z,10.78
2019-05-19T00:15:25.244Z,10.81
2019-05-19T00:16:25.212Z,10.86
2019-05-19T00:17:25.186Z,10.76
2019-05-19T00:18:25.171Z,10.78
2019-05-19T00:19:27.035Z,10.79
2019-05-19T00:20:25.115Z,10.69
2019-05-19T00:21:25.055Z,10.82
2019-05-19T00:22:25.026Z,10.75
2019-05-19T00:23:25.022Z,10.71
2019-05-19T00:24:24.967Z,10.79
2019-05-19T00:25:24.956Z,10.74
2019-05-19T00:26:24.911Z,10.76
2019-05-19T00:27:24.889Z,10.76
2019-05-19T00:28:24.872Z,10.81
2019-05-19T00:29:24.876Z,10.76
2019-05-19T00:30:24.795Z,10.87
2019-05-19T00:31:24.762Z,10.84
2019-05-19T00:32:24.728Z,10.89
2019-05-19T00:33:24.724Z,10.86
2019-05-19T00:34:24.681Z,10.87
2019-05-19T00:35:24.653Z,10.79
2019-05-19T00:36:24.612Z,10.79
2019-05-19T00:37:24.587Z,10.78
2019-05-19T00:38:24.639Z,10.72
2019-05-19T00:39:24.577Z,10.76
2019-05-19T00:40:24.510Z,10.76
2019-05-19T00:41:24.468Z,10.74
2019-05-19T00:42:24.448Z,10.81
2019-05-19T00:43:24.436Z,10.78
2019-05-19T00:44:24.397Z,10.72
2019-05-19T00:45:24.351Z,10.68
2019-05-19T00:46:24.326Z,10.67
2019-05-19T00:47:24.344Z,10.68
2019-05-19T00:48:24.330Z,10.63
2019-05-19T00:49:24.243Z,10.63
2019-05-19T00:50:24.214Z,10.59
2019-05-19T00:51:24.202Z,10.61
2019-05-19T00:52:24.152Z,10.61
2019-05-19T00:53:24.156Z,10.63
2019-05-19T00:54:24.082Z,10.61
2019-05-19T00:55:24.056Z,10.63
2019-05-19T00:56:24.018Z,10.63
2019-05-19T00:57:23.998Z,10.61
2019-05-19T00:58:23.963Z,10.63
2019-05-19T00:59:23.960Z,10.60
2019-05-19T01:00:23.936Z,10.54
2019-05-19T01:01:23.891Z,10.60
2019-05-19T01:02:23.861Z,10.61
2019-05-19T01:03:23.818Z,10.54
2019-05-19T01:04:23.808Z,10.61
2019-05-19T01:05:23.760Z,10.68
2019-05-19T01:06:23.726Z,10.56
2019-05-19T01:07:23.781Z,10.61
2019-05-19T01:08:23.677Z,10.63
2019-05-19T01:09:23.677Z,10.71
2019-05-19T01:10:23.619Z,10.64
2019-05-19T01:11:23.577Z,10.63
2019-05-19T01:12:23.549Z,10.64
2019-05-19T01:13:23.521Z,10.57
2019-05-19T01:14:23.526Z,10.56
2019-05-19T01:15:23.463Z,10.56
2019-05-19T01:16:23.436Z,10.57
2019-05-19T01:17:23.405Z,10.54
2019-05-19T01:18:23.374Z,10.54
2019-05-19T01:19:23.369Z,10.56
2019-05-19T01:20:23.373Z,10.53
2019-05-19T01:21:23.288Z,10.42
2019-05-19T01:22:23.254Z,10.44
2019-05-19T01:23:23.220Z,10.44
2019-05-19T01:24:23.229Z,10.41
2019-05-19T01:25:23.161Z,10.34
2019-05-19T01:26:23.130Z,10.48
2019-05-19T01:27:23.111Z,10.33
2019-05-19T01:28:23.084Z,10.35
2019-05-19T01:29:23.071Z,10.28
2019-05-19T01:30:23.023Z,10.34
2019-05-19T01:31:23.005Z,10.31
2019-05-19T01:32:22.954Z,10.33
2019-05-19T01:33:22.931Z,10.41
2019-05-19T01:34:22.925Z,10.41
2019-05-19T01:35:22.865Z,10.38
2019-05-19T01:36:22.838Z,10.35
2019-05-19T01:37:22.822Z,10.33
2019-05-19T01:38:22.775Z,10.35
2019-05-19T01:39:22.793Z,10.30
2019-05-19T01:40:22.712Z,10.37
2019-05-19T01:41:22.695Z,10.31
2019-05-19T01:42:22.657Z,10.33
2019-05-19T01:43:22.627Z,10.33
2019-05-19T01:44:22.621Z,10.33
2019-05-19T01:45:22.568Z,10.33
2019-05-19T01:46:22.546Z,10.30
2019-05-19T01:47:22.513Z,10.34
2019-05-19T01:48:22.495Z,10.35
2019-05-19T01:49:22.508Z,10.28
2019-05-19T01:50:22.418Z,10.37
2019-05-19T01:51:22.390Z,10.35
2019-05-19T01:52:22.358Z,10.31
2019-05-19T01:53:22.322Z,10.34
2019-05-19T01:54:22.331Z,10.28
2019-05-19T01:55:22.281Z,10.31
2019-05-19T01:56:22.257Z,10.33
2019-05-19T01:57:22.211Z,10.34
2019-05-19T01:58:22.186Z,10.31
2019-05-19T01:59:22.170Z,10.34
2019-05-19T02:00:22.119Z,10.34
2019-05-19T02:01:22.088Z,10.41
2019-05-19T02:02:22.065Z,10.33
2019-05-19T02:03:22.026Z,10.37
2019-05-19T02:04:22.029Z,10.26
2019-05-19T02:05:22.014Z,10.25
2019-05-19T02:06:21.937Z,10.26
2019-05-19T02:07:21.912Z,10.22
2019-05-19T02:08:21.874Z,10.17
2019-05-19T02:09:21.868Z,10.19
2019-05-19T02:10:21.846Z,10.20
2019-05-19T02:11:21.803Z,10.19
2019-05-19T02:12:21.763Z,10.17
2019-05-19T02:13:21.727Z,10.20
2019-05-19T02:14:21.695Z,10.17
2019-05-19T02:15:21.703Z,10.20
2019-05-19T02:16:21.649Z,10.13
2019-05-19T02:17:21.612Z,10.01
2019-05-19T02:18:21.599Z,10.15
2019-05-19T02:19:21.546Z,10.02
2019-05-19T02:20:32.687Z,10.01
2019-05-19T02:21:21.492Z,10.02
2019-05-19T02:22:21.475Z,9.98
2019-05-19T02:23:21.461Z,9.99
2019-05-19T02:24:21.396Z,10.01
2019-05-19T02:25:21.475Z,9.92
2019-05-19T02:26:21.337Z,9.95
2019-05-19T02:27:21.319Z,9.97
2019-05-19T02:28:21.279Z,9.94
2019-05-19T02:29:21.246Z,9.98
2019-05-19T02:30:21.243Z,9.97
2019-05-19T02:31:21.183Z,10.01
2019-05-19T02:32:21.159Z,9.97
2019-05-19T02:33:21.139Z,9.97
2019-05-19T02:34:21.101Z,9.99
2019-05-19T02:35:21.095Z,9.98
2019-05-19T02:36:21.042Z,9.92
2019-05-19T02:37:21.008Z,9.98
2019-05-19T02:38:20.982Z,10.02
2019-05-19T02:39:20.942Z,9.92
2019-05-19T02:40:20.943Z,9.99
2019-05-19T02:41:20.887Z,9.98
2019-05-19T02:42:20.861Z,10.01
2019-05-19T02:43:20.887Z,9.94
2019-05-19T02:44:20.792Z,9.98
2019-05-19T02:45:20.789Z,9.95
2019-05-19T02:46:20.742Z,9.98
2019-05-19T02:47:20.702Z,9.86
2019-05-19T02:48:20.683Z,9.94
2019-05-19T02:49:20.651Z,9.83
2019-05-19T02:50:20.657Z,9.94
2019-05-19T02:51:20.584Z,9.94
2019-05-19T02:52:20.555Z,9.99
2019-05-19T02:53:20.532Z,9.94
2019-05-19T02:54:20.495Z,9.94
2019-05-19T02:55:20.491Z,9.98
2019-05-19T02:56:20.449Z,9.99
2019-05-19T02:57:20.403Z,10.02
2019-05-19T02:58:20.372Z,9.99
2019-05-19T02:59:20.356Z,10.02
2019-05-19T03:00:20.341Z,9.98
2019-05-19T03:01:20.282Z,10.17
2019-05-19T03:02:20.251Z,10.15
2019-05-19T03:03:20.242Z,10.04
2019-05-19T03:04:20.195Z,10.19
2019-05-19T03:05:20.191Z,10.05
2019-05-19T03:06:20.135Z,10.13
2019-05-19T03:07:20.110Z,10.05
2019-05-19T03:08:20.072Z,10.13
2019-05-19T03:09:20.045Z,10.05
2019-05-19T03:10:20.047Z,10.04
2019-05-19T03:11:19.987Z,10.17
2019-05-19T03:12:19.964Z,10.13
2019-05-19T03:13:19.937Z,10.15
2019-05-19T03:14:19.888Z,10.13
2019-05-19T03:15:19.862Z,10.16
2019-05-19T03:16:19.860Z,10.16
2019-05-19T03:17:19.805Z,10.16
2019-05-19T03:18:19.780Z,10.22
2019-05-19T03:19:19.743Z,10.23
2019-05-19T03:20:19.719Z,10.22
2019-05-19T03:21:19.712Z,10.33
2019-05-19T03:22:19.654Z,10.25
2019-05-19T03:23:19.627Z,10.28
2019-05-19T03:24:19.597Z,10.37
2019-05-19T03:25:19.566Z,10.28
2019-05-19T03:26:19.559Z,10.31
2019-05-19T03:27:19.498Z,10.33
2019-05-19T03:28:19.481Z,10.35
2019-05-19T03:29:19.443Z,10.40
2019-05-19T03:30:19.439Z,10.40
2019-05-19T03:31:19.437Z,10.41
2019-05-19T03:32:19.394Z,10.57
2019-05-19T03:33:19.325Z,10.51
2019-05-19T03:34:19.291Z,10.53
2019-05-19T03:35:19.266Z,10.64
2019-05-19T03:36:19.267Z,10.57
2019-05-19T03:37:19.207Z,10.61
2019-05-19T03:38:19.182Z,10.48
2019-05-19T03:39:19.142Z,10.61
2019-05-19T03:40:19.113Z,10.63
2019-05-19T03:41:19.117Z,10.68
2019-05-19T03:42:19.060Z,10.75
2019-05-19T03:43:19.026Z,10.90
2019-05-19T03:44:19.000Z,10.90
2019-05-19T03:45:18.973Z,10.89
2019-05-19T03:46:18.960Z,10.93
2019-05-19T03:47:18.907Z,10.97
2019-05-19T03:48:18.881Z,10.97
2019-05-19T03:49:18.864Z,10.93
2019-05-19T03:50:18.846Z,10.99
2019-05-19T03:51:30.385Z,10.97
2019-05-19T03:52:18.823Z,11.04
2019-05-19T03:53:18.729Z,11.12
2019-05-19T03:54:18.750Z,11.04
2019-05-19T03:55:18.672Z,11.11
2019-05-19T03:56:18.675Z,11.11
2019-05-19T03:57:18.619Z,11.18
2019-05-19T03:58:18.616Z,11.22
2019-05-19T03:59:18.555Z,11.32
2019-05-19T04:00:18.527Z,11.33
2019-05-19T04:01:18.533Z,11.50
2019-05-19T04:02:18.474Z,11.43
2019-05-19T04:03:18.441Z,11.52
2019-05-19T04:04:18.425Z,11.62
2019-05-19T04:05:18.379Z,11.59
2019-05-19T04:06:18.379Z,11.73
2019-05-19T04:07:18.341Z,11.84
2019-05-19T04:08:18.289Z,11.95
2019-05-19T04:09:18.262Z,12.00
2019-05-19T04:10:18.229Z,12.13
2019-05-19T04:11:18.207Z,12.22
2019-05-19T04:12:18.210Z,12.20
2019-05-19T04:13:18.145Z,12.28
2019-05-19T04:14:18.133Z,12.25
2019-05-19T04:15:18.092Z,12.36
2019-05-19T04:16:18.120Z,12.39
2019-05-19T04:17:18.055Z,12.42
2019-05-19T04:18:18.000Z,12.46
2019-05-19T04:19:17.983Z,12.61
2019-05-19T04:20:17.947Z,12.68
2019-05-19T04:21:17.913Z,12.70
2019-05-19T04:22:17.912Z,12.79
2019-05-19T04:23:17.864Z,12.91
2019-05-19T04:24:17.847Z,13.00
2019-05-19T04:25:17.847Z,13.01
2019-05-19T04:26:17.773Z,13.19
2019-05-19T04:27:17.784Z,13.15
2019-05-19T04:28:17.719Z,13.25
2019-05-19T04:29:17.804Z,13.41
2019-05-19T04:30:17.674Z,13.53
2019-05-19T04:31:17.636Z,13.62
2019-05-19T04:32:17.631Z,13.79
2019-05-19T04:33:17.578Z,13.87
2019-05-19T04:34:17.553Z,13.90
2019-05-19T04:35:17.531Z,14.04
2019-05-19T04:36:17.502Z,14.11
2019-05-19T04:37:17.483Z,14.18
2019-05-19T04:38:17.452Z,14.26
2019-05-19T04:39:17.411Z,14.32
2019-05-19T04:40:17.378Z,14.35
2019-05-19T04:41:17.360Z,14.45
2019-05-19T04:42:17.372Z,14.50
2019-05-19T04:43:17.298Z,14.50
2019-05-19T04:44:17.267Z,14.50
2019-05-19T04:45:17.250Z,14.59
2019-05-19T04:46:17.214Z,14.65
2019-05-19T04:47:17.212Z,14.68
2019-05-19T04:48:17.166Z,14.78
2019-05-19T04:49:17.143Z,14.73
2019-05-19T04:50:17.114Z,14.92
2019-05-19T04:51:17.090Z,14.97
2019-05-19T04:52:17.081Z,15.10
2019-05-19T04:53:17.029Z,15.07
2019-05-19T04:54:17.001Z,15.18
2019-05-19T04:55:16.979Z,15.31
2019-05-19T04:56:19.626Z,15.29
2019-05-19T04:57:16.948Z,15.28
2019-05-19T04:58:16.897Z,15.44
2019-05-19T04:59:16.869Z,15.51
2019-05-19T05:00:16.848Z,15.57
2019-05-19T05:01:16.815Z,15.67
2019-05-19T05:02:16.808Z,15.65
2019-05-19T05:03:16.769Z,15.61
2019-05-19T05:04:16.741Z,15.62
2019-05-19T05:05:16.722Z,15.73
2019-05-19T05:06:16.690Z,15.75
2019-05-19T05:07:16.684Z,15.65
2019-05-19T05:08:28.672Z,15.73
2019-05-19T05:09:16.615Z,15.82
2019-05-19T05:10:16.584Z,15.83
2019-05-19T05:11:16.560Z,15.83
2019-05-19T05:12:16.551Z,15.88
2019-05-19T05:13:16.510Z,15.90
2019-05-19T05:14:16.475Z,15.98
2019-05-19T05:15:16.450Z,16.09
2019-05-19T05:16:16.418Z,16.13
2019-05-19T05:17:16.429Z,16.23
2019-05-19T05:18:16.371Z,16.29
2019-05-19T05:19:16.389Z,16.47
2019-05-19T05:20:16.321Z,16.56
2019-05-19T05:21:16.304Z,16.64
2019-05-19T05:22:22.141Z,16.71
2019-05-19T05:23:16.240Z,16.76
2019-05-19T05:24:16.215Z,16.83
2019-05-19T05:25:16.193Z,16.81
2019-05-19T05:26:16.168Z,16.86
2019-05-19T05:27:16.152Z,16.93
2019-05-19T05:28:16.147Z,17.04
2019-05-19T05:29:16.100Z,17.14
2019-05-19T05:30:16.066Z,17.11
2019-05-19T05:31:16.039Z,17.12
2019-05-19T05:32:16.015Z,17.27
2019-05-19T05:33:16.012Z,17.24
2019-05-19T05:34:15.967Z,17.20
2019-05-19T05:35:15.950Z,17.29
2019-05-19T05:36:15.919Z,17.38
2019-05-19T05:37:15.911Z,17.31
2019-05-19T05:38:15.906Z,17.45
2019-05-19T05:39:15.891Z,17.41
2019-05-19T05:40:15.823Z,17.44
2019-05-19T05:41:15.819Z,17.42
2019-05-19T05:42:15.769Z,17.36
2019-05-19T05:43:15.769Z,17.56
2019-05-19T05:44:15.730Z,17.60
2019-05-19T05:45:15.691Z,17.60
2019-05-19T05:46:15.673Z,17.63
2019-05-19T05:47:15.648Z,17.60
2019-05-19T05:48:15.772Z,17.64
2019-05-19T05:49:15.637Z,17.59
2019-05-19T05:50:15.579Z,17.52
2019-05-19T05:51:15.563Z,17.52
2019-05-19T05:52:15.536Z,17.48
2019-05-19T05:53:15.523Z,17.51
2019-05-19T05:54:15.477Z,17.46
2019-05-19T05:55:15.504Z,17.49
2019-05-19T05:56:15.424Z,17.42
2019-05-19T05:57:15.407Z,17.57
2019-05-19T05:58:15.410Z,17.52
2019-05-19T05:59:15.350Z,17.52
2019-05-19T06:00:15.992Z,17.52
2019-05-19T06:01:15.318Z,17.51
2019-05-19T06:02:15.298Z,17.52
2019-05-19T06:03:15.281Z,17.56
2019-05-19T06:04:15.231Z,17.45
2019-05-19T06:05:15.210Z,17.39
2019-05-19T06:06:15.190Z,17.39
2019-05-19T06:07:15.171Z,17.45
2019-05-19T06:08:15.157Z,17.46
2019-05-19T06:09:15.109Z,17.38
2019-05-19T06:10:15.085Z,17.38
2019-05-19T06:11:15.074Z,17.33
2019-05-19T06:12:15.043Z,17.34
2019-05-19T06:13:15.036Z,17.29
2019-05-19T06:14:14.990Z,17.38
2019-05-19T06:15:14.957Z,17.34
2019-05-19T06:16:14.941Z,17.27
2019-05-19T06:17:14.909Z,17.33
2019-05-19T06:18:14.944Z,17.38
2019-05-19T06:19:14.868Z,17.41
2019-05-19T06:20:14.842Z,17.36
2019-05-19T06:21:14.815Z,17.30
2019-05-19T06:22:14.787Z,17.36
2019-05-19T06:23:14.786Z,17.44
2019-05-19T06:24:14.744Z,17.45
2019-05-19T06:25:15.028Z,17.46
2019-05-19T06:26:14.704Z,17.42
2019-05-19T06:27:14.665Z,17.39
2019-05-19T06:28:14.671Z,17.41
2019-05-19T06:29:14.614Z,17.42
2019-05-19T06:30:14.591Z,17.39
2019-05-19T06:31:14.608Z,17.42
2019-05-19T06:32:14.537Z,17.42
2019-05-19T06:33:14.593Z,17.48
2019-05-19T06:34:14.487Z,17.44
2019-05-19T06:35:14.475Z,17.42
2019-05-19T06:36:14.460Z,17.52
2019-05-19T06:37:14.419Z,17.52
2019-05-19T06:38:14.421Z,17.60
2019-05-19T06:39:14.367Z,17.72
2019-05-19T06:40:14.335Z,17.85
2019-05-19T06:41:14.320Z,17.83
2019-05-19T06:42:14.286Z,17.90
2019-05-19T06:43:14.293Z,17.87
2019-05-19T06:44:14.237Z,17.95
2019-05-19T06:45:14.218Z,17.98
2019-05-19T06:46:14.192Z,17.98
2019-05-19T06:47:14.169Z,18.04
2019-05-19T06:48:14.138Z,18.03
2019-05-19T06:49:14.142Z,18.08
2019-05-19T06:50:14.090Z,18.10
2019-05-19T06:51:14.076Z,18.19
2019-05-19T06:52:14.046Z,18.29
2019-05-19T06:53:14.719Z,18.33
2019-05-19T06:54:14.015Z,18.37
2019-05-19T06:55:13.964Z,18.33
2019-05-19T06:56:13.942Z,18.44
2019-05-19T06:57:13.914Z,18.43
2019-05-19T06:58:13.893Z,18.45
2019-05-19T06:59:13.898Z,18.50
2019-05-19T07:00:13.836Z,18.49
2019-05-19T07:01:13.845Z,18.58
2019-05-19T07:02:13.818Z,18.59
2019-05-19T07:03:13.788Z,18.56
2019-05-19T07:04:13.813Z,18.68
2019-05-19T07:05:13.727Z,18.65
2019-05-19T07:06:13.708Z,18.63
2019-05-19T07:07:13.689Z,18.65
2019-05-19T07:08:13.646Z,18.78
2019-05-19T07:09:13.661Z,18.88
2019-05-19T07:10:13.680Z,18.92
2019-05-19T07:11:13.617Z,18.95
2019-05-19T07:12:13.545Z,19.07
2019-05-19T07:13:13.523Z,18.93
2019-05-19T07:14:13.537Z,19.14
2019-05-19T07:15:13.481Z,19.16
2019-05-19T07:16:13.451Z,19.30
2019-05-19T07:17:13.425Z,19.34
2019-05-19T07:18:13.397Z,19.44
2019-05-19T07:19:13.395Z,19.44
2019-05-19T07:20:13.347Z,19.45
2019-05-19T07:21:13.382Z,19.56
2019-05-19T07:22:13.304Z,19.51
2019-05-19T07:23:27.029Z,19.55
2019-05-19T07:24:13.276Z,19.56
2019-05-19T07:25:13.236Z,19.63
2019-05-19T07:26:13.228Z,19.66
2019-05-19T07:27:13.257Z,19.66
2019-05-19T07:28:13.158Z,19.64
2019-05-19T07:29:13.163Z,19.76
2019-05-19T07:30:13.118Z,19.85
2019-05-19T07:31:13.208Z,19.81
2019-05-19T07:32:13.059Z,19.86
2019-05-19T07:33:13.044Z,19.85
2019-05-19T07:34:13.039Z,19.91
2019-05-19T07:35:12.989Z,19.88
2019-05-19T07:36:12.989Z,19.94
2019-05-19T07:37:12.937Z,20.00
2019-05-19T07:38:12.918Z,20.09
2019-05-19T07:39:12.910Z,20.06
2019-05-19T07:40:12.872Z,20.13
2019-05-19T07:41:12.956Z,20.21
2019-05-19T07:42:12.827Z,20.14
2019-05-19T07:43:12.808Z,20.25
2019-05-19T07:44:12.801Z,20.32
2019-05-19T07:45:12.753Z,20.39
2019-05-19T07:46:12.728Z,20.44
2019-05-19T07:47:12.724Z,20.60
2019-05-19T07:48:12.677Z,20.55
2019-05-19T07:49:12.680Z,20.65
2019-05-19T07:50:12.628Z,20.66
2019-05-19T07:51:12.620Z,20.74
2019-05-19T07:52:12.581Z,20.82
2019-05-19T07:53:12.569Z,20.81
2019-05-19T07:54:12.568Z,20.88
2019-05-19T07:55:12.513Z,20.82
2019-05-19T07:56:12.495Z,20.90
2019-05-19T07:57:12.464Z,20.96
2019-05-19T07:58:12.452Z,20.92
2019-05-19T07:59:12.440Z,20.93
2019-05-19T08:00:12.397Z,21.03
2019-05-19T08:01:12.378Z,21.03
2019-05-19T08:02:12.347Z,21.03
2019-05-19T08:03:12.325Z,21.09
2019-05-19T08:04:12.302Z,21.09
2019-05-19T08:05:12.318Z,21.05
2019-05-19T08:06:12.301Z,21.07
2019-05-19T08:07:12.242Z,21.12
2019-05-19T08:08:12.265Z,21.17
2019-05-19T08:09:12.190Z,21.25
2019-05-19T08:10:12.189Z,21.21
2019-05-19T08:11:12.140Z,21.24
2019-05-19T08:12:12.123Z,21.22
2019-05-19T08:13:12.102Z,21.32
2019-05-19T08:14:12.070Z,21.40
2019-05-19T08:15:12.161Z,21.30
2019-05-19T08:16:12.140Z,21.55
2019-05-19T08:17:12.041Z,21.61
2019-05-19T08:18:11.989Z,21.62
2019-05-19T08:19:11.962Z,21.67
2019-05-19T08:20:11.960Z,21.76
2019-05-19T08:21:11.918Z,21.73
2019-05-19T08:22:11.897Z,21.82
2019-05-19T08:23:11.868Z,21.85
2019-05-19T08:24:11.851Z,21.91
2019-05-19T08:25:11.857Z,21.82
2019-05-19T08:26:11.824Z,21.88
2019-05-19T08:27:11.800Z,21.83
2019-05-19T08:28:11.756Z,21.89
2019-05-19T08:29:11.736Z,21.92
2019-05-19T08:30:11.731Z,21.98
2019-05-19T08:31:11.693Z,21.96
2019-05-19T08:32:11.680Z,22.02
2019-05-19T08:33:11.647Z,22.07
2019-05-19T08:34:11.636Z,22.06
2019-05-19T08:35:11.681Z,22.17
2019-05-19T08:36:11.579Z,22.15
2019-05-19T08:37:11.555Z,22.15
2019-05-19T08:38:11.543Z,22.18
2019-05-19T08:39:11.516Z,22.17
2019-05-19T08:40:11.517Z,22.26
2019-05-19T08:41:11.471Z,22.23
2019-05-19T08:42:11.450Z,22.29
2019-05-19T08:43:11.418Z,22.32
2019-05-19T08:44:11.404Z,22.38
2019-05-19T08:45:11.409Z,22.39
2019-05-19T08:46:11.390Z,22.43
2019-05-19T08:47:11.325Z,22.48
2019-05-19T08:48:11.309Z,22.48
2019-05-19T08:49:11.298Z,22.57
2019-05-19T08:50:11.326Z,22.62
2019-05-19T08:51:11.254Z,22.68
2019-05-19T08:52:11.266Z,22.73
2019-05-19T08:53:11.198Z,22.73
2019-05-19T08:54:14.858Z,22.80
2019-05-19T08:55:11.179Z,22.83
2019-05-19T08:56:11.133Z,22.96
2019-05-19T08:57:11.112Z,22.94
2019-05-19T08:58:11.090Z,23.02
2019-05-19T08:59:11.088Z,23.06
2019-05-19T09:00:11.078Z,22.98
2019-05-19T09:01:11.953Z,23.05
2019-05-19T09:02:11.009Z,23.15
2019-05-19T09:03:10.996Z,23.09
2019-05-19T09:04:10.973Z,23.18
2019-05-19T09:05:10.983Z,23.31
2019-05-19T09:06:10.931Z,23.23
2019-05-19T09:07:10.919Z,23.31
2019-05-19T09:08:10.925Z,23.23
2019-05-19T09:09:10.847Z,23.28
2019-05-19T09:10:10.868Z,23.20
2019-05-19T09:11:10.868Z,23.25
2019-05-19T09:12:10.783Z,23.28
2019-05-19T09:13:10.778Z,23.34
2019-05-19T09:14:10.759Z,23.39
2019-05-19T09:15:10.782Z,23.39
2019-05-19T09:16:10.716Z,23.41
2019-05-19T09:17:10.800Z,23.51
2019-05-19T09:18:10.677Z,23.51
2019-05-19T09:19:10.647Z,23.61
2019-05-19T09:20:11.460Z,23.63
2019-05-19T09:21:10.639Z,23.61
2019-05-19T09:22:10.572Z,23.54
2019-05-19T09:23:10.587Z,23.54
2019-05-19T09:24:10.549Z,23.48
2019-05-19T09:25:10.568Z,23.43
2019-05-19T09:26:10.491Z,23.50
2019-05-19T09:27:10.469Z,23.41
2019-05-19T09:28:10.493Z,23.51
2019-05-19T09:29:10.431Z,23.39
2019-05-19T09:30:10.407Z,23.51
2019-05-19T09:31:10.416Z,23.48
2019-05-19T09:32:10.374Z,23.56
2019-05-19T09:33:10.340Z,23.54
2019-05-19T09:34:10.313Z,23.68
2019-05-19T09:35:10.301Z,23.66
2019-05-19T09:36:10.310Z,23.65
2019-05-19T09:37:10.257Z,23.78
2019-05-19T09:38:10.414Z,23.74
2019-05-19T09:39:10.235Z,23.83
2019-05-19T09:40:10.195Z,23.87
2019-05-19T09:41:10.213Z,23.81
2019-05-19T09:42:10.149Z,23.92
2019-05-19T09:43:10.183Z,23.93
2019-05-19T09:44:10.101Z,24.08
2019-05-19T09:45:10.100Z,23.99
2019-05-19T09:46:10.083Z,23.93
2019-05-19T09:47:10.053Z,24.11
2019-05-19T09:48:10.023Z,24.10
2019-05-19T09:49:09.997Z,24.18
2019-05-19T09:50:09.976Z,24.36
2019-05-19T09:51:09.982Z,24.23
2019-05-19T09:52:09.933Z,24.32
2019-05-19T09:53:09.925Z,24.29
2019-05-19T09:54:09.899Z,24.10
2019-05-19T09:55:09.876Z,24.26
2019-05-19T09:56:09.887Z,24.32
2019-05-19T09:57:09.831Z,24.36
2019-05-19T09:58:09.810Z,24.33
2019-05-19T09:59:09.798Z,24.24
2019-05-19T10:00:09.774Z,24.20
2019-05-19T10:01:09.782Z,24.21
2019-05-19T10:02:10.492Z,24.21
2019-05-19T10:03:09.723Z,24.17
2019-05-19T10:04:09.689Z,24.11
2019-05-19T10:05:09.667Z,24.18
2019-05-19T10:06:09.666Z,24.26
2019-05-19T10:07:09.745Z,24.26
2019-05-19T10:08:09.603Z,24.20
2019-05-19T10:09:09.584Z,24.26
2019-05-19T10:10:09.559Z,24.24
2019-05-19T10:11:09.570Z,24.29
2019-05-19T10:12:09.526Z,24.42
2019-05-19T10:13:09.502Z,24.48
2019-05-19T10:14:09.485Z,24.61
2019-05-19T10:15:09.459Z,24.65
2019-05-19T10:16:09.467Z,24.77
2019-05-19T10:17:09.417Z,24.92
2019-05-19T10:18:09.398Z,24.93
2019-05-19T10:19:09.380Z,24.92
2019-05-19T10:20:09.357Z,24.84
2019-05-19T10:21:09.361Z,24.60
2019-05-19T10:22:09.319Z,24.54
2019-05-19T10:23:09.303Z,24.50
2019-05-19T10:24:09.275Z,24.60
2019-05-19T10:25:21.153Z,24.53
2019-05-19T10:26:09.232Z,24.76
2019-05-19T10:27:09.267Z,24.77
2019-05-19T10:28:09.194Z,24.92
2019-05-19T10:29:09.172Z,24.95
2019-05-19T10:30:09.160Z,24.99
2019-05-19T10:31:09.174Z,24.99
2019-05-19T10:32:09.139Z,25.07
2019-05-19T10:33:09.097Z,25.07
2019-05-19T10:34:09.099Z,25.06
2019-05-19T10:35:09.055Z,25.07
2019-05-19T10:36:09.031Z,25.01
2019-05-19T10:37:09.100Z,25.01
2019-05-19T10:38:09.000Z,25.06
2019-05-19T10:39:08.967Z,25.14
2019-05-19T10:40:08.944Z,25.03
2019-05-19T10:41:08.931Z,25.07
2019-05-19T10:42:08.932Z,25.01
2019-05-19T10:43:08.924Z,24.91
2019-05-19T10:44:08.880Z,24.73
2019-05-19T10:45:08.852Z,24.69
2019-05-19T10:46:08.826Z,24.84
2019-05-19T10:47:08.831Z,24.88
2019-05-19T10:48:08.790Z,24.88
2019-05-19T10:49:08.771Z,25.10
2019-05-19T10:50:08.753Z,25.04
2019-05-19T10:51:08.729Z,25.08
2019-05-19T10:52:08.730Z,25.17
2019-05-19T10:53:08.743Z,25.21
2019-05-19T10:54:08.692Z,25.23
2019-05-19T10:55:08.646Z,25.26
2019-05-19T10:56:08.628Z,25.26
2019-05-19T10:57:08.632Z,25.28
2019-05-19T10:58:08.589Z,25.33
2019-05-19T10:59:08.573Z,25.28
2019-05-19T11:00:08.556Z,25.28
2019-05-19T11:01:08.566Z,25.32
2019-05-19T11:02:08.534Z,25.46
2019-05-19T11:03:08.516Z,25.51
2019-05-19T11:04:08.466Z,25.50
2019-05-19T11:05:11.186Z,25.50
2019-05-19T11:06:08.433Z,25.54
2019-05-19T11:07:08.405Z,25.47
2019-05-19T11:08:08.408Z,25.41
2019-05-19T11:09:08.371Z,25.23
2019-05-19T11:10:08.349Z,25.32
2019-05-19T11:11:08.326Z,25.21
2019-05-19T11:12:08.310Z,25.22
2019-05-19T11:13:08.425Z,25.21
2019-05-19T11:14:08.277Z,25.36
2019-05-19T11:15:08.250Z,25.44
2019-05-19T11:16:08.229Z,25.44
2019-05-19T11:17:08.231Z,25.55
2019-05-19T11:18:08.209Z,25.75
2019-05-19T11:19:08.166Z,25.78
2019-05-19T11:20:08.147Z,25.81
2019-05-19T11:21:08.127Z,25.65
2019-05-19T11:22:08.114Z,25.75
2019-05-19T11:23:08.119Z,25.90
2019-05-19T11:24:08.068Z,25.93
2019-05-19T11:25:08.078Z,26.00
2019-05-19T11:26:08.043Z,25.99
2019-05-19T11:27:10.054Z,26.10
2019-05-19T11:28:08.013Z,26.09
2019-05-19T11:29:07.981Z,26.10
2019-05-19T11:30:07.943Z,26.22
2019-05-19T11:31:07.932Z,26.33
2019-05-19T11:32:07.905Z,26.10
2019-05-19T11:33:07.950Z,26.19
2019-05-19T11:34:07.869Z,26.19
2019-05-19T11:35:07.866Z,26.23
2019-05-19T11:36:07.828Z,26.25
2019-05-19T11:37:07.814Z,26.23
2019-05-19T11:38:07.816Z,26.33
2019-05-19T11:39:07.776Z,26.36
2019-05-19T11:40:07.749Z,26.43
2019-05-19T11:41:07.786Z,26.34
2019-05-19T11:42:07.712Z,26.15
2019-05-19T11:43:07.739Z,26.07
2019-05-19T11:44:07.688Z,26.05
2019-05-19T11:45:07.652Z,26.22
2019-05-19T11:46:07.643Z,26.37
2019-05-19T11:47:07.623Z,26.34
2019-05-19T11:48:07.631Z,26.37
2019-05-19T11:49:07.587Z,26.44
2019-05-19T11:50:07.568Z,26.58
2019-05-19T11:51:07.567Z,26.66
2019-05-19T11:52:07.526Z,26.73
2019-05-19T11:53:07.544Z,26.90
2019-05-19T11:54:07.482Z,27.02
2019-05-19T11:55:07.463Z,27.08
2019-05-19T11:56:11.242Z,27.27
2019-05-19T11:57:07.429Z,27.42
2019-05-19T11:58:07.441Z,27.44
2019-05-19T11:59:07.404Z,27.40
2019-05-19T12:00:07.372Z,27.30
2019-05-19T12:01:07.352Z,27.21
2019-05-19T12:02:07.586Z,27.12
2019-05-19T12:03:07.340Z,26.99
2019-05-19T12:04:07.295Z,26.55
2019-05-19T12:05:07.278Z,26.34
2019-05-19T12:06:07.271Z,26.34
2019-05-19T12:07:07.247Z,26.56
2019-05-19T12:08:07.260Z,26.84
2019-05-19T12:09:07.218Z,27.11
2019-05-19T12:10:07.189Z,27.35
2019-05-19T12:11:07.188Z,27.58
2019-05-19T12:12:07.165Z,27.73
2019-05-19T12:13:07.175Z,27.87
2019-05-19T12:14:07.120Z,27.78
2019-05-19T12:15:07.101Z,27.74
2019-05-19T12:16:07.099Z,27.98
2019-05-19T12:17:07.141Z,28.07
2019-05-19T12:18:07.096Z,28.10
2019-05-19T12:19:07.025Z,28.11
2019-05-19T12:20:07.028Z,28.00
2019-05-19T12:21:06.989Z,28.04
2019-05-19T12:22:06.979Z,28.10
2019-05-19T12:23:06.989Z,28.08
2019-05-19T12:24:06.947Z,28.12
2019-05-19T12:25:06.925Z,28.10
2019-05-19T12:26:20.951Z,28.05
2019-05-19T12:27:06.896Z,28.17
2019-05-19T12:28:06.872Z,28.02
2019-05-19T12:29:06.882Z,28.05
2019-05-19T12:30:06.850Z,28.22
2019-05-19T12:31:06.814Z,28.19
2019-05-19T12:32:06.815Z,28.54
2019-05-19T12:33:06.794Z,28.67
2019-05-19T12:34:06.812Z,28.82
2019-05-19T12:35:06.764Z,28.97
2019-05-19T12:36:06.753Z,29.05
2019-05-19T12:37:06.736Z,29.04
2019-05-19T12:38:06.699Z,29.20
2019-05-19T12:39:06.709Z,29.20
2019-05-19T12:40:06.793Z,29.14
2019-05-19T12:41:06.668Z,29.22
2019-05-19T12:42:06.640Z,29.31
2019-05-19T12:43:06.623Z,29.26
2019-05-19T12:44:06.677Z,28.89
2019-05-19T12:45:06.595Z,28.67
2019-05-19T12:46:15.635Z,28.51
2019-05-19T12:47:06.567Z,28.29
2019-05-19T12:48:06.538Z,28.23
2019-05-19T12:49:06.556Z,28.19
2019-05-19T12:50:06.604Z,28.11
2019-05-19T12:51:06.488Z,28.25
2019-05-19T12:52:06.476Z,28.42
2019-05-19T12:53:06.455Z,28.14